createdAt,value
2022-12-24T00:00:02.664Z,4.03
2022-12-24T00:02:29.300Z,6.38
2022-12-24T00:05:00.903Z,4.22
2022-12-24T00:07:29.708Z,5.15
2022-12-24T00:09:56.352Z,5.70
2022-12-24T00:12:23.665Z,3.92
2022-12-24T00:14:50.300Z,5.35
2022-12-24T00:17:16.978Z,4.15
2022-12-24T00:19:43.671Z,4.80
2022-12-24T00:22:10.540Z,4.30
2022-12-24T00:24:37.192Z,4.28
2022-12-24T00:27:05.660Z,4.68
2022-12-24T00:29:33.054Z,4.07
2022-12-24T00:32:00.174Z,3.78
2022-12-24T00:34:26.904Z,4.07
2022-12-24T00:36:53.711Z,4.05
2022-12-24T00:39:20.298Z,6.35
2022-12-24T00:41:46.940Z,3.92
2022-12-24T00:44:13.572Z,4.30
2022-12-24T00:46:41.699Z,4.03
2022-12-24T00:49:09.361Z,5.32
2022-12-24T00:51:37.091Z,3.75
2022-12-24T00:54:04.018Z,4.45
2022-12-24T00:56:30.851Z,5.25
2022-12-24T00:58:57.985Z,4.53
2022-12-24T01:01:25.349Z,4.47
2022-12-24T01:03:52.619Z,4.57
2022-12-24T01:06:21.062Z,4.75
2022-12-24T01:08:51.360Z,4.85
2022-12-24T01:11:18.371Z,5.03
2022-12-24T01:13:44.994Z,4.47
2022-12-24T01:16:20.346Z,5.90
2022-12-24T01:18:47.097Z,4.63
2022-12-24T01:21:14.694Z,4.60
2022-12-24T01:23:41.381Z,4.50
2022-12-24T01:26:08.128Z,4.45
2022-12-24T01:28:34.727Z,5.43
2022-12-24T01:31:01.392Z,4.13
2022-12-24T01:33:29.522Z,4.65
2022-12-24T01:35:56.163Z,5.13
2022-12-24T01:38:22.775Z,5.15
2022-12-24T01:41:07.942Z,3.67
2022-12-24T01:43:34.697Z,4.63
2022-12-24T01:46:12.242Z,5.05
2022-12-24T01:49:00.271Z,3.67
2022-12-24T01:51:35.993Z,3.92
2022-12-24T01:54:25.638Z,5.25
2022-12-24T01:56:58.274Z,4.18
2022-12-24T01:59:25.408Z,4.45
2022-12-24T02:01:54.140Z,5.57
2022-12-24T02:04:34.819Z,4.28
2022-12-24T02:07:01.699Z,4.40
2022-12-24T02:09:28.737Z,4.18
2022-12-24T02:11:56.067Z,4.68
2022-12-24T02:14:23.064Z,3.97
2022-12-24T02:17:06.973Z,4.45
2022-12-24T02:19:42.384Z,4.80
2022-12-24T02:22:11.753Z,5.70
2022-12-24T02:25:00.439Z,4.95
2022-12-24T02:27:40.674Z,5.22
2022-12-24T02:30:12.007Z,4.53
2022-12-24T02:33:05.878Z,4.75
2022-12-24T02:35:47.854Z,3.60
2022-12-24T02:40:53.358Z,5.63
2022-12-24T02:43:24.418Z,4.45
2022-12-24T02:46:22.744Z,3.65
2022-12-24T02:48:50.673Z,4.55
2022-12-24T02:51:21.869Z,4.82
2022-12-24T02:53:48.466Z,4.78
2022-12-24T02:56:41.919Z,5.43
2022-12-24T02:59:34.853Z,4.75
2022-12-24T03:02:25.295Z,4.28
2022-12-24T03:05:10.424Z,4.50
2022-12-24T03:07:44.953Z,5.38
2022-12-24T03:10:39.444Z,3.90
2022-12-24T03:13:17.377Z,4.47
2022-12-24T03:15:45.760Z,5.00
2022-12-24T03:18:15.631Z,3.67
2022-12-24T03:20:45.880Z,4.53
2022-12-24T03:23:13.280Z,3.67
2022-12-24T03:25:42.640Z,3.30
2022-12-24T03:28:12.407Z,4.20
2022-12-24T03:30:43.942Z,3.35
2022-12-24T03:33:11.205Z,4.45
2022-12-24T03:35:37.828Z,4.70
2022-12-24T03:38:04.914Z,3.58
2022-12-24T03:40:31.576Z,4.93
2022-12-24T03:42:58.537Z,5.57
2022-12-24T03:45:25.305Z,4.22
2022-12-24T03:47:51.982Z,4.40
2022-12-24T03:50:18.637Z,4.85
2022-12-24T03:52:45.257Z,4.90
2022-12-24T03:55:11.997Z,5.88
2022-12-24T03:57:38.562Z,4.32
2022-12-24T04:00:06.421Z,5.00
2022-12-24T04:02:33.071Z,5.47
2022-12-24T04:04:59.836Z,6.05
2022-12-24T04:07:27.131Z,4.72
2022-12-24T04:09:53.731Z,4.82
2022-12-24T04:12:20.331Z,5.20
2022-12-24T04:14:47.085Z,4.32
2022-12-24T04:17:13.684Z,4.93
2022-12-24T04:19:40.304Z,4.30
2022-12-24T04:22:06.955Z,5.38
2022-12-24T04:24:33.703Z,4.78
2022-12-24T04:27:00.293Z,5.05
2022-12-24T04:29:26.939Z,5.93
2022-12-24T04:31:53.744Z,5.35
2022-12-24T04:34:20.429Z,4.50
2022-12-24T04:36:47.104Z,4.15
2022-12-24T04:39:13.692Z,5.72
2022-12-24T04:41:40.317Z,5.22
2022-12-24T04:44:06.930Z,5.25
2022-12-24T04:46:33.747Z,5.95
2022-12-24T04:49:01.120Z,4.60
2022-12-24T04:51:28.637Z,5.32
2022-12-24T04:53:56.752Z,4.80
2022-12-24T04:56:26.568Z,3.95
2022-12-24T04:58:53.574Z,4.32
2022-12-24T05:01:23.453Z,5.47
2022-12-24T05:03:50.745Z,4.28
2022-12-24T05:06:21.056Z,4.15
2022-12-24T05:08:47.887Z,4.93
2022-12-24T05:11:15.839Z,5.15
2022-12-24T05:13:47.089Z,4.25
2022-12-24T05:16:15.964Z,4.72
2022-12-24T05:18:43.010Z,4.70
2022-12-24T05:21:11.430Z,5.22
2022-12-24T05:23:57.251Z,4.85
2022-12-24T05:26:28.840Z,5.47
2022-12-24T05:28:57.513Z,4.18
2022-12-24T05:31:25.823Z,4.60
2022-12-24T05:33:54.578Z,4.82
2022-12-24T05:36:22.014Z,4.75
2022-12-24T05:38:49.159Z,4.15
2022-12-24T05:41:16.197Z,3.88
2022-12-24T05:43:42.869Z,5.35
2022-12-24T05:46:15.592Z,4.75
2022-12-24T05:48:42.331Z,5.05
2022-12-24T05:51:11.241Z,4.28
2022-12-24T05:53:38.617Z,4.50
2022-12-24T05:56:10.601Z,4.78
2022-12-24T05:58:38.510Z,5.13
2022-12-24T06:01:06.349Z,5.63
2022-12-24T06:03:33.623Z,4.13
2022-12-24T06:06:01.704Z,4.90
2022-12-24T06:08:29.279Z,4.82
2022-12-24T06:10:58.042Z,4.40
2022-12-24T06:13:25.089Z,5.88
2022-12-24T06:15:55.017Z,4.10
2022-12-24T06:18:22.012Z,5.53
2022-12-24T06:20:53.614Z,5.38
2022-12-24T06:23:20.917Z,5.85
2022-12-24T06:25:49.018Z,6.22
2022-12-24T06:28:15.686Z,4.85
2022-12-24T06:30:47.191Z,5.32
2022-12-24T06:33:14.291Z,6.10
2022-12-24T06:35:41.431Z,5.75
2022-12-24T06:38:08.094Z,4.90
2022-12-24T06:40:34.708Z,5.63
2022-12-24T06:43:01.341Z,5.72
2022-12-24T06:45:27.935Z,5.38
2022-12-24T06:47:54.556Z,4.65
2022-12-24T06:50:21.147Z,5.47
2022-12-24T06:52:47.897Z,6.32
2022-12-24T06:55:14.898Z,6.68
2022-12-24T06:57:41.575Z,7.20
2022-12-24T07:00:10.070Z,6.85
2022-12-24T07:02:40.913Z,6.10
2022-12-24T07:05:10.377Z,6.38
2022-12-24T07:07:38.796Z,6.00
2022-12-24T07:10:06.367Z,8.05
2022-12-24T07:12:33.374Z,5.63
2022-12-24T07:15:00.035Z,7.28
2022-12-24T07:17:26.846Z,4.88
2022-12-24T07:19:53.580Z,8.75
2022-12-24T07:22:20.328Z,6.32
2022-12-24T07:24:46.936Z,8.32
2022-12-24T07:27:13.609Z,5.82
2022-12-24T07:29:41.179Z,6.18
2022-12-24T07:32:08.085Z,6.55
2022-12-24T07:34:35.220Z,5.35
2022-12-24T07:37:01.895Z,6.78
2022-12-24T07:39:28.593Z,5.78
2022-12-24T07:41:55.191Z,6.18
2022-12-24T07:44:21.888Z,5.50
2022-12-24T07:46:48.523Z,5.07
2022-12-24T07:49:15.222Z,5.95
2022-12-24T07:51:41.925Z,6.05
2022-12-24T07:54:08.525Z,6.30
2022-12-24T07:56:35.204Z,5.68
2022-12-24T07:59:01.794Z,6.43
2022-12-24T08:01:28.482Z,6.63
2022-12-24T08:03:55.509Z,6.10
2022-12-24T08:06:22.511Z,6.50
2022-12-24T08:08:49.299Z,4.93
2022-12-24T08:11:16.374Z,5.18
2022-12-24T08:13:43.044Z,6.65
2022-12-24T08:16:09.715Z,5.68
2022-12-24T08:18:36.383Z,5.38
2022-12-24T08:21:03.389Z,6.43
2022-12-24T08:23:30.061Z,6.30
2022-12-24T08:25:56.633Z,5.72
2022-12-24T08:28:23.282Z,5.40
2022-12-24T08:30:51.521Z,6.32
2022-12-24T08:33:19.440Z,6.55
2022-12-24T08:35:50.699Z,5.45
2022-12-24T08:38:17.344Z,6.55
2022-12-24T08:40:44.572Z,6.10
2022-12-24T08:43:11.199Z,5.68
2022-12-24T08:45:40.891Z,5.15
2022-12-24T08:48:08.808Z,5.05
2022-12-24T08:50:38.074Z,6.45
2022-12-24T08:53:04.709Z,5.05
2022-12-24T08:55:31.464Z,6.07
2022-12-24T08:57:58.370Z,5.85
2022-12-24T09:00:25.005Z,6.50
2022-12-24T09:02:51.833Z,5.82
2022-12-24T09:05:18.739Z,6.15
2022-12-24T09:07:45.395Z,6.90
2022-12-24T09:10:12.183Z,6.80
2022-12-24T09:12:39.098Z,5.25
2022-12-24T09:15:08.115Z,5.65
2022-12-24T09:17:36.034Z,6.78
2022-12-24T09:20:04.396Z,6.75
2022-12-24T09:22:31.042Z,6.53
2022-12-24T09:24:57.648Z,6.28
2022-12-24T09:27:24.322Z,6.60
2022-12-24T09:29:50.942Z,6.47
2022-12-24T09:32:18.426Z,5.18
2022-12-24T09:34:45.055Z,5.63
2022-12-24T09:37:11.688Z,5.28
2022-12-24T09:39:38.360Z,7.22
2022-12-24T09:42:40.682Z,5.43
2022-12-24T09:45:26.201Z,5.78
2022-12-24T09:47:59.949Z,6.18
2022-12-24T09:50:39.476Z,6.07
2022-12-24T09:53:36.479Z,5.78
2022-12-24T09:56:15.980Z,5.22
2022-12-24T09:58:47.876Z,5.22
2022-12-24T10:03:43.265Z,4.10
2022-12-24T10:06:24.990Z,4.28
2022-12-24T10:09:19.615Z,5.00
2022-12-24T10:12:20.260Z,5.40
2022-12-24T10:15:24.455Z,5.60
2022-12-24T10:18:12.177Z,5.40
2022-12-24T10:20:50.910Z,4.95
2022-12-24T10:23:32.901Z,4.38
2022-12-24T10:26:07.867Z,5.00
2022-12-24T10:28:46.353Z,5.32
2022-12-24T10:31:14.424Z,5.38
2022-12-24T10:33:46.953Z,6.50
2022-12-24T10:36:20.458Z,5.93
2022-12-24T10:38:47.350Z,4.10
2022-12-24T10:41:16.136Z,5.97
2022-12-24T10:43:44.925Z,5.80
2022-12-24T10:46:17.721Z,4.97
2022-12-24T10:48:50.963Z,5.00
2022-12-24T10:51:33.646Z,4.38
2022-12-24T10:54:02.996Z,4.30
2022-12-24T10:56:29.603Z,5.05
2022-12-24T10:58:56.258Z,4.95
2022-12-24T11:01:43.799Z,4.28
2022-12-24T11:04:19.676Z,4.55
2022-12-24T11:07:06.950Z,4.80
2022-12-24T11:09:35.481Z,4.68
2022-12-24T11:12:09.424Z,4.32
2022-12-24T11:14:39.951Z,4.15
2022-12-24T11:17:06.724Z,4.82
2022-12-24T11:19:37.073Z,4.88
2022-12-24T11:22:18.250Z,4.85
2022-12-24T11:24:50.108Z,5.38
2022-12-24T11:27:40.485Z,4.28
2022-12-24T11:30:15.937Z,4.95
2022-12-24T11:32:42.643Z,5.28
2022-12-24T11:35:24.155Z,3.72
2022-12-24T11:38:03.115Z,4.32
2022-12-24T11:40:41.821Z,3.58
2022-12-24T11:43:18.392Z,4.03
2022-12-24T11:45:54.100Z,3.63
2022-12-24T11:48:34.695Z,4.20
2022-12-24T11:51:04.080Z,4.05
2022-12-24T11:53:49.574Z,5.13
2022-12-24T11:56:29.059Z,4.05
2022-12-24T11:59:03.085Z,3.67
2022-12-24T12:01:42.284Z,4.32
2022-12-24T12:04:22.181Z,4.10
2022-12-24T12:07:15.230Z,3.75
2022-12-24T12:09:47.728Z,3.60
2022-12-24T12:12:17.430Z,3.45
2022-12-24T12:15:19.393Z,3.85
2022-12-24T12:18:11.023Z,3.35
2022-12-24T12:20:51.990Z,5.18
2022-12-24T12:23:28.760Z,3.22
2022-12-24T12:25:59.046Z,3.25
2022-12-24T12:28:53.546Z,3.10
2022-12-24T12:31:51.957Z,2.83
2022-12-24T12:34:33.832Z,3.35
2022-12-24T12:39:31.628Z,4.00
2022-12-24T12:42:09.994Z,3.05
2022-12-24T12:44:49.761Z,4.10
2022-12-24T12:47:43.931Z,3.85
2022-12-24T12:50:25.382Z,3.15
2022-12-24T12:53:29.307Z,4.10
2022-12-24T12:56:06.560Z,4.75
2022-12-24T12:58:48.024Z,3.42
2022-12-24T13:01:33.368Z,4.38
2022-12-24T13:04:31.011Z,3.15
2022-12-24T13:07:22.186Z,3.97
2022-12-24T13:10:28.916Z,3.67
2022-12-24T13:13:07.577Z,3.97
2022-12-24T13:15:48.195Z,3.58
2022-12-24T13:18:17.952Z,3.83
2022-12-24T13:20:49.133Z,3.42
2022-12-24T13:23:22.528Z,3.50
2022-12-24T13:25:57.932Z,3.10
2022-12-24T13:28:24.679Z,4.05
2022-12-24T13:31:24.539Z,2.67
2022-12-24T13:33:56.959Z,2.97
2022-12-24T13:36:24.201Z,4.10
2022-12-24T13:38:57.929Z,3.90
2022-12-24T13:41:38.700Z,3.83
2022-12-24T13:46:59.974Z,3.85
2022-12-24T13:49:41.616Z,3.15
2022-12-24T13:52:11.234Z,3.35
2022-12-24T13:55:03.991Z,3.92
2022-12-24T13:57:44.845Z,3.08
2022-12-24T14:00:20.690Z,3.22
2022-12-24T14:02:50.821Z,3.55
2022-12-24T14:05:33.145Z,3.60
2022-12-24T14:08:03.823Z,2.95
2022-12-24T14:10:46.494Z,3.78
2022-12-24T14:13:52.819Z,3.75
2022-12-24T14:16:30.283Z,4.00
2022-12-24T14:19:11.055Z,3.72
2022-12-24T14:21:44.483Z,3.55
2022-12-24T14:24:17.864Z,4.38
2022-12-24T14:26:49.701Z,3.78
2022-12-24T14:31:56.586Z,3.92
2022-12-24T14:34:23.655Z,3.85
2022-12-24T14:36:54.606Z,4.00
2022-12-24T14:39:24.419Z,4.67
2022-12-24T14:42:16.733Z,4.07
2022-12-24T14:44:56.069Z,4.00
2022-12-24T14:47:43.154Z,4.57
2022-12-24T14:50:29.499Z,3.78
2022-12-24T14:53:19.251Z,3.92
2022-12-24T14:55:48.313Z,4.25
2022-12-24T14:58:36.815Z,4.10
2022-12-24T15:01:26.231Z,4.68
2022-12-24T15:04:18.015Z,3.75
2022-12-24T15:06:52.532Z,3.67
2022-12-24T15:09:21.235Z,4.55
2022-12-24T15:11:50.023Z,5.07
2022-12-24T15:14:18.292Z,4.68
2022-12-24T15:17:05.381Z,5.05
2022-12-24T15:19:38.608Z,5.20
2022-12-24T15:22:30.234Z,4.80
2022-12-24T15:24:56.897Z,3.92
2022-12-24T15:27:26.461Z,5.45
2022-12-24T15:29:56.681Z,4.35
2022-12-24T15:32:23.945Z,5.78
2022-12-24T15:34:55.519Z,4.45
2022-12-24T15:37:37.659Z,4.60
2022-12-24T15:40:20.463Z,4.93
2022-12-24T15:42:47.393Z,5.45
2022-12-24T15:45:26.709Z,4.25
2022-12-24T15:48:17.018Z,4.35
2022-12-24T15:50:46.358Z,5.65
2022-12-24T15:53:35.304Z,4.45
2022-12-24T15:56:04.947Z,4.80
2022-12-24T15:58:37.844Z,4.82
2022-12-24T16:01:13.057Z,5.45
2022-12-24T16:03:51.673Z,5.03
2022-12-24T16:06:19.185Z,6.03
2022-12-24T16:08:47.091Z,5.60
2022-12-24T16:11:19.088Z,4.85
2022-12-24T16:14:03.572Z,6.30
2022-12-24T16:16:35.071Z,5.03
2022-12-24T16:19:03.327Z,6.35
2022-12-24T16:21:34.631Z,5.22
2022-12-24T16:24:14.804Z,5.38
2022-12-24T16:26:41.431Z,5.53
2022-12-24T16:29:09.891Z,5.18
2022-12-24T16:31:43.342Z,5.65
2022-12-24T16:34:17.046Z,6.50
2022-12-24T16:36:45.538Z,6.55
2022-12-24T16:39:38.465Z,6.65
2022-12-24T16:42:23.689Z,6.53
2022-12-24T16:44:53.172Z,5.72
2022-12-24T16:47:27.327Z,5.00
2022-12-24T16:49:54.103Z,4.65
2022-12-24T16:52:23.881Z,5.28
2022-12-24T16:54:50.919Z,4.50
2022-12-24T16:57:18.086Z,4.85
2022-12-24T16:59:44.729Z,6.78
2022-12-24T17:02:15.838Z,5.78
2022-12-24T17:04:43.353Z,8.55
2022-12-24T17:07:15.973Z,8.20
2022-12-24T17:09:43.275Z,7.10
2022-12-24T17:12:10.450Z,8.27
2022-12-24T17:14:38.830Z,7.32
2022-12-24T17:17:05.699Z,7.38
2022-12-24T17:19:32.544Z,8.05
2022-12-24T17:21:59.167Z,7.65
2022-12-24T17:24:25.805Z,7.18
2022-12-24T17:26:52.442Z,7.45
2022-12-24T17:29:19.084Z,9.63
2022-12-24T17:31:45.702Z,10.13
2022-12-24T17:34:12.384Z,8.13
2022-12-24T17:36:40.138Z,8.80
2022-12-24T17:39:06.769Z,7.70
2022-12-24T17:41:33.428Z,7.18
2022-12-24T17:44:00.097Z,5.78
2022-12-24T17:46:26.759Z,6.50
2022-12-24T17:48:53.527Z,8.45
2022-12-24T17:51:22.744Z,8.27
2022-12-24T17:53:49.801Z,6.88
2022-12-24T17:56:17.299Z,7.57
2022-12-24T17:58:45.036Z,8.40
2022-12-24T18:01:20.287Z,6.78
2022-12-24T18:03:48.399Z,7.32
2022-12-24T18:06:16.026Z,7.65
2022-12-24T18:08:43.800Z,8.27
2022-12-24T18:11:20.964Z,9.13
2022-12-24T18:13:48.887Z,11.77
2022-12-24T18:16:21.601Z,9.25
2022-12-24T18:18:49.771Z,7.75
2022-12-24T18:21:18.389Z,8.90
2022-12-24T18:23:47.612Z,13.57
2022-12-24T18:26:15.670Z,30.67
2022-12-24T18:28:42.789Z,35.03
2022-12-24T18:31:13.372Z,34.50
2022-12-24T18:33:40.364Z,31.98
2022-12-24T18:36:07.840Z,31.77
2022-12-24T18:38:34.721Z,30.42
2022-12-24T18:41:07.200Z,29.17
2022-12-24T18:43:34.274Z,20.33
2022-12-24T18:46:09.893Z,20.88
2022-12-24T18:48:36.865Z,21.00
2022-12-24T18:51:05.242Z,21.13
2022-12-24T18:53:31.981Z,17.17
2022-12-24T18:56:13.370Z,16.77
2022-12-24T18:58:42.126Z,19.58
2022-12-24T19:01:21.170Z,17.27
2022-12-24T19:03:49.238Z,17.55
2022-12-24T19:06:17.178Z,15.93
2022-12-24T19:08:56.909Z,18.52
2022-12-24T19:11:25.063Z,19.45
2022-12-24T19:13:53.119Z,18.98
2022-12-24T19:16:20.748Z,18.73
2022-12-24T19:18:47.614Z,18.73
2022-12-24T19:21:15.687Z,14.73
2022-12-24T19:23:42.816Z,13.20
2022-12-24T19:26:13.833Z,13.82
2022-12-24T19:28:40.524Z,14.53
2022-12-24T19:31:13.938Z,14.18
2022-12-24T19:33:46.259Z,12.07
2022-12-24T19:36:15.548Z,16.40
2022-12-24T19:38:42.645Z,13.70
2022-12-24T19:41:12.542Z,16.55
2022-12-24T19:43:44.406Z,15.35
2022-12-24T19:48:39.264Z,13.60
2022-12-24T19:51:08.813Z,13.15
2022-12-24T19:53:36.316Z,13.10
2022-12-24T19:56:03.723Z,12.93
2022-12-24T19:58:32.664Z,13.10
2022-12-24T20:01:11.192Z,13.52
2022-12-24T20:06:08.618Z,13.00
2022-12-24T20:08:36.939Z,14.65
2022-12-24T20:11:08.275Z,14.35
2022-12-24T20:13:36.072Z,17.10
2022-12-24T20:16:08.509Z,19.35
2022-12-24T20:18:35.320Z,18.02
2022-12-24T20:21:03.777Z,19.00
2022-12-24T20:23:30.791Z,21.55
2022-12-24T20:26:02.997Z,20.52
2022-12-24T20:28:32.736Z,19.63
2022-12-24T20:30:59.382Z,22.75
2022-12-24T20:33:26.290Z,24.88
2022-12-24T20:35:53.020Z,24.67
2022-12-24T20:38:19.710Z,20.42
2022-12-24T20:40:46.675Z,20.52
2022-12-24T20:43:13.379Z,18.52
2022-12-24T20:45:40.851Z,19.60
2022-12-24T20:48:08.071Z,19.35
2022-12-24T20:50:34.761Z,20.38
2022-12-24T20:53:01.431Z,21.88
2022-12-24T20:55:28.167Z,18.00
2022-12-24T20:57:54.772Z,17.75
2022-12-24T21:00:21.729Z,16.52
2022-12-24T21:02:48.589Z,19.55
2022-12-24T21:05:15.617Z,16.77
2022-12-24T21:07:43.562Z,18.88
2022-12-24T21:10:12.253Z,16.23
2022-12-24T21:12:48.812Z,17.83
2022-12-24T21:15:25.610Z,18.80
2022-12-24T21:17:53.160Z,15.38
2022-12-24T21:20:20.231Z,16.35
2022-12-24T21:22:47.052Z,16.33
2022-12-24T21:25:13.988Z,18.42
2022-12-24T21:27:40.640Z,26.02
2022-12-24T21:30:09.267Z,27.52
2022-12-24T21:32:36.699Z,19.83
2022-12-24T21:35:03.812Z,18.88
2022-12-24T21:37:30.700Z,17.40
2022-12-24T21:39:57.344Z,16.48
2022-12-24T21:42:24.008Z,20.98
2022-12-24T21:44:50.691Z,18.63
2022-12-24T21:47:17.346Z,18.40
2022-12-24T21:50:02.624Z,17.95
2022-12-24T21:52:29.277Z,16.65
2022-12-24T21:54:55.957Z,17.90
2022-12-24T21:57:55.051Z,16.40
2022-12-24T22:00:21.830Z,16.42
2022-12-24T22:02:56.473Z,15.90
2022-12-24T22:05:25.992Z,12.85
2022-12-24T22:08:12.223Z,13.45
2022-12-24T22:10:58.371Z,14.10
2022-12-24T22:13:25.837Z,15.15
2022-12-24T22:15:54.000Z,16.08
2022-12-24T22:18:23.961Z,16.27
2022-12-24T22:20:51.685Z,13.48
2022-12-24T22:23:19.227Z,14.25
2022-12-24T22:25:46.127Z,14.05
2022-12-24T22:28:12.874Z,14.65
2022-12-24T22:30:41.458Z,13.50
2022-12-24T22:33:08.617Z,13.38
2022-12-24T22:35:39.583Z,13.25
2022-12-24T22:38:07.735Z,12.90
2022-12-24T22:40:34.365Z,12.63
2022-12-24T22:43:00.977Z,13.60
2022-12-24T22:45:27.701Z,12.32
2022-12-24T22:47:54.308Z,14.20
2022-12-24T22:50:21.164Z,13.88
2022-12-24T22:52:47.780Z,13.05
2022-12-24T22:55:14.503Z,12.55
2022-12-24T22:57:41.093Z,13.18
2022-12-24T23:00:34.014Z,11.23
2022-12-24T23:03:00.782Z,12.68
2022-12-24T23:05:27.464Z,11.50
2022-12-24T23:07:54.052Z,12.40
2022-12-24T23:10:20.639Z,12.07
2022-12-24T23:13:11.163Z,11.85
2022-12-24T23:15:41.257Z,11.77
2022-12-24T23:18:08.493Z,13.40
2022-12-24T23:20:39.279Z,10.98
2022-12-24T23:23:06.013Z,11.00
2022-12-24T23:25:33.053Z,13.85
2022-12-24T23:27:59.656Z,12.40
2022-12-24T23:30:26.331Z,11.13
2022-12-24T23:32:52.961Z,11.60
2022-12-24T23:35:19.573Z,12.32
2022-12-24T23:37:46.168Z,12.77
2022-12-24T23:40:12.918Z,9.90
2022-12-24T23:42:39.582Z,10.95
2022-12-24T23:45:06.834Z,9.15
2022-12-24T23:47:33.485Z,11.25
2022-12-24T23:50:00.162Z,12.73
2022-12-24T23:52:26.814Z,11.93
2022-12-24T23:54:53.464Z,10.07
2022-12-24T23:57:20.096Z,11.20
2022-12-24T23:59:46.763Z,10.55
